sensor_id;sensor_type;location;lat;lon;timestamp;pressure;altitude;pressure_sealevel;temperature;humidity
9905;BME280;4991;43.566;27.820;2022-10-26T00:02:08;98988.44;;;15.80;100.00
9905;BME280;4991;43.566;27.820;2022-10-26T00:04:34;98989.25;;;15.81;100.00
9905;BME280;4991;43.566;27.820;2022-10-26T00:07:00;98990.13;;;15.73;100.00
9905;BME280;4991;43.566;27.820;2022-10-26T00:09:25;98986.31;;;15.65;100.00
9905;BME280;4991;43.566;27.820;2022-10-26T00:11:51;98992.31;;;15.59;100.00
9905;BME280;4991;43.566;27.820;2022-10-26T00:14:17;98988.63;;;15.55;100.00
9905;BME280;4991;43.566;27.820;2022-10-26T00:16:43;98987.81;;;15.54;100.00
9905;BME280;4991;43.566;27.820;2022-10-26T00:19:09;99007.69;;;15.51;100.00
9905;BME280;4991;43.566;27.820;2022-10-26T00:21:34;99001.22;;;15.47;100.00
9905;BME280;4991;43.566;27.820;2022-10-26T00:24:00;99011.13;;;15.39;100.00
9905;BME280;4991;43.566;27.820;2022-10-26T00:26:25;99002.72;;;15.36;100.00
9905;BME280;4991;43.566;27.820;2022-10-26T00:28:54;99005.47;;;15.36;100.00
9905;BME280;4991;43.566;27.820;2022-10-26T00:31:21;99008.25;;;15.27;100.00
9905;BME280;4991;43.566;27.820;2022-10-26T00:33:47;99017.28;;;15.28;100.00
9905;BME280;4991;43.566;27.820;2022-10-26T00:36:15;99017.66;;;15.18;100.00
9905;BME280;4991;43.566;27.820;2022-10-26T00:38:51;99019.47;;;15.05;100.00
9905;BME280;4991;43.566;27.820;2022-10-26T00:41:19;99028.97;;;15.08;100.00
9905;BME280;4991;43.566;27.820;2022-10-26T00:43:45;99032.72;;;15.03;100.00
9905;BME280;4991;43.566;27.820;2022-10-26T00:46:33;99028.84;;;14.96;100.00
9905;BME280;4991;43.566;27.820;2022-10-26T00:49:15;99037.72;;;14.93;100.00
9905;BME280;4991;43.566;27.820;2022-10-26T00:51:52;99033.22;;;14.97;100.00
9905;BME280;4991;43.566;27.820;2022-10-26T00:54:19;99034.97;;;14.93;100.00
9905;BME280;4991;43.566;27.820;2022-10-26T00:56:46;99032.09;;;14.81;100.00
9905;BME280;4991;43.566;27.820;2022-10-26T00:59:14;99041.47;;;14.80;100.00
9905;BME280;4991;43.566;27.820;2022-10-26T01:01:43;99032.25;;;14.76;100.00
9905;BME280;4991;43.566;27.820;2022-10-26T01:04:11;99036.81;;;14.72;100.00
9905;BME280;4991;43.566;27.820;2022-10-26T01:06:38;99033.09;;;14.59;100.00
9905;BME280;4991;43.566;27.820;2022-10-26T01:09:05;99031.66;;;14.53;100.00
9905;BME280;4991;43.566;27.820;2022-10-26T01:11:31;99041.19;;;14.56;100.00
9905;BME280;4991;43.566;27.820;2022-10-26T01:13:58;99039.38;;;14.60;100.00
9905;BME280;4991;43.566;27.820;2022-10-26T01:22:03;99050.84;;;14.45;100.00
9905;BME280;4991;43.566;27.820;2022-10-26T01:32:22;99048.25;;;14.31;100.00
9905;BME280;4991;43.566;27.820;2022-10-26T01:34:59;99049.22;;;14.27;100.00
9905;BME280;4991;43.566;27.820;2022-10-26T01:37:30;99049.22;;;14.27;100.00
9905;BME280;4991;43.566;27.820;2022-10-26T01:40:20;99049.22;;;14.27;100.00
9905;BME280;4991;43.566;27.820;2022-10-26T01:42:50;99054.72;;;14.27;100.00
9905;BME280;4991;43.566;27.820;2022-10-26T01:45:17;99048.41;;;14.26;100.00
9905;BME280;4991;43.566;27.820;2022-10-26T01:47:44;99050.97;;;14.22;100.00
9905;BME280;4991;43.566;27.820;2022-10-26T01:50:12;99050.50;;;14.20;100.00
9905;BME280;4991;43.566;27.820;2022-10-26T01:52:39;99046.13;;;14.19;100.00
9905;BME280;4991;43.566;27.820;2022-10-26T02:02:01;99070.31;;;14.17;100.00
9905;BME280;4991;43.566;27.820;2022-10-26T02:05:21;99074.00;;;14.13;100.00
9905;BME280;4991;43.566;27.820;2022-10-26T02:07:42;99070.78;;;14.11;100.00
9905;BME280;4991;43.566;27.820;2022-10-26T02:13:40;99068.50;;;14.04;100.00
9905;BME280;4991;43.566;27.820;2022-10-26T02:16:41;99078.31;;;13.97;100.00
9905;BME280;4991;43.566;27.820;2022-10-26T02:19:26;99080.72;;;13.90;100.00
9905;BME280;4991;43.566;27.820;2022-10-26T02:24:33;99082.97;;;13.79;100.00
9905;BME280;4991;43.566;27.820;2022-10-26T02:27:02;99086.31;;;13.76;100.00
9905;BME280;4991;43.566;27.820;2022-10-26T02:29:30;99085.19;;;13.77;100.00
9905;BME280;4991;43.566;27.820;2022-10-26T02:31:58;99087.09;;;13.68;100.00
9905;BME280;4991;43.566;27.820;2022-10-26T02:34:27;99090.66;;;13.77;100.00
9905;BME280;4991;43.566;27.820;2022-10-26T02:36:56;99083.41;;;13.73;100.00
9905;BME280;4991;43.566;27.820;2022-10-26T02:39:25;99082.09;;;13.70;100.00
9905;BME280;4991;43.566;27.820;2022-10-26T02:41:54;99086.94;;;13.73;100.00
9905;BME280;4991;43.566;27.820;2022-10-26T02:46:46;99102.75;;;13.85;100.00
9905;BME280;4991;43.566;27.820;2022-10-26T02:49:12;99098.25;;;13.80;100.00
9905;BME280;4991;43.566;27.820;2022-10-26T02:51:45;99096.00;;;13.82;100.00
9905;BME280;4991;43.566;27.820;2022-10-26T02:57:04;99120.91;;;13.72;100.00
9905;BME280;4991;43.566;27.820;2022-10-26T02:59:34;99119.94;;;13.68;100.00
9905;BME280;4991;43.566;27.820;2022-10-26T03:02:02;99116.84;;;13.61;100.00
9905;BME280;4991;43.566;27.820;2022-10-26T03:04:30;99124.38;;;13.56;100.00
9905;BME280;4991;43.566;27.820;2022-10-26T03:06:57;99120.78;;;13.47;100.00
9905;BME280;4991;43.566;27.820;2022-10-26T03:09:22;99131.75;;;13.47;100.00
9905;BME280;4991;43.566;27.820;2022-10-26T03:11:48;99126.91;;;13.44;100.00
9905;BME280;4991;43.566;27.820;2022-10-26T03:14:14;99118.38;;;13.45;100.00
9905;BME280;4991;43.566;27.820;2022-10-26T03:16:40;99129.59;;;13.35;100.00
9905;BME280;4991;43.566;27.820;2022-10-26T03:19:06;99141.53;;;13.39;100.00
9905;BME280;4991;43.566;27.820;2022-10-26T03:21:31;99139.75;;;13.43;100.00
9905;BME280;4991;43.566;27.820;2022-10-26T03:23:57;99141.09;;;13.46;100.00
9905;BME280;4991;43.566;27.820;2022-10-26T03:26:22;99140.13;;;13.50;100.00
9905;BME280;4991;43.566;27.820;2022-10-26T03:28:48;99144.91;;;13.45;100.00
9905;BME280;4991;43.566;27.820;2022-10-26T03:31:14;99145.09;;;13.48;100.00
9905;BME280;4991;43.566;27.820;2022-10-26T03:33:39;99146.09;;;13.52;100.00
9905;BME280;4991;43.566;27.820;2022-10-26T03:36:05;99145.28;;;13.52;100.00
9905;BME280;4991;43.566;27.820;2022-10-26T03:38:31;99144.91;;;13.45;100.00
9905;BME280;4991;43.566;27.820;2022-10-26T03:40:57;99150.56;;;13.48;100.00
9905;BME280;4991;43.566;27.820;2022-10-26T03:43:25;99152.84;;;13.46;100.00
9905;BME280;4991;43.566;27.820;2022-10-26T03:45:51;99151.72;;;13.47;100.00
9905;BME280;4991;43.566;27.820;2022-10-26T03:48:17;99163.66;;;13.51;100.00
9905;BME280;4991;43.566;27.820;2022-10-26T03:50:43;99166.53;;;13.55;100.00
9905;BME280;4991;43.566;27.820;2022-10-26T03:53:09;99169.31;;;13.63;100.00
9905;BME280;4991;43.566;27.820;2022-10-26T03:55:34;99165.16;;;13.66;100.00
9905;BME280;4991;43.566;27.820;2022-10-26T03:58:00;99161.47;;;13.70;100.00
9905;BME280;4991;43.566;27.820;2022-10-26T04:00:26;99160.34;;;13.71;100.00
9905;BME280;4991;43.566;27.820;2022-10-26T04:02:56;99169.09;;;13.82;100.00
9905;BME280;4991;43.566;27.820;2022-10-26T04:05:27;99172.16;;;13.80;100.00
9905;BME280;4991;43.566;27.820;2022-10-26T04:07:58;99175.72;;;13.81;100.00
9905;BME280;4991;43.566;27.820;2022-10-26T04:10:26;99174.88;;;13.80;100.00
9905;BME280;4991;43.566;27.820;2022-10-26T04:12:52;99180.00;;;13.73;100.00
9905;BME280;4991;43.566;27.820;2022-10-26T04:15:18;99178.91;;;13.74;100.00
9905;BME280;4991;43.566;27.820;2022-10-26T04:17:44;99175.53;;;13.77;100.00
9905;BME280;4991;43.566;27.820;2022-10-26T04:20:10;99177.94;;;13.79;100.00
9905;BME280;4991;43.566;27.820;2022-10-26T04:22:36;99184.06;;;13.76;100.00
9905;BME280;4991;43.566;27.820;2022-10-26T04:25:03;99175.16;;;13.70;100.00
9905;BME280;4991;43.566;27.820;2022-10-26T04:27:29;99182.88;;;13.68;100.00
9905;BME280;4991;43.566;27.820;2022-10-26T04:29:54;99181.31;;;13.76;100.00
9905;BME280;4991;43.566;27.820;2022-10-26T04:32:20;99189.03;;;13.74;100.00
9905;BME280;4991;43.566;27.820;2022-10-26T04:34:46;99193.38;;;13.75;100.00
9905;BME280;4991;43.566;27.820;2022-10-26T04:37:11;99197.59;;;13.81;100.00
9905;BME280;4991;43.566;27.820;2022-10-26T04:39:37;99200.84;;;13.91;100.00
9905;BME280;4991;43.566;27.820;2022-10-26T04:42:03;99204.91;;;13.94;100.00
9905;BME280;4991;43.566;27.820;2022-10-26T04:44:28;99205.09;;;13.97;100.00
9905;BME280;4991;43.566;27.820;2022-10-26T04:46:54;99205.75;;;14.03;100.00
9905;BME280;4991;43.566;27.820;2022-10-26T04:49:21;99205.28;;;14.01;100.00
9905;BME280;4991;43.566;27.820;2022-10-26T04:51:47;99202.69;;;14.04;100.00
9905;BME280;4991;43.566;27.820;2022-10-26T04:54:12;99206.09;;;14.10;100.00
9905;BME280;4991;43.566;27.820;2022-10-26T04:56:40;99201.59;;;14.14;100.00
9905;BME280;4991;43.566;27.820;2022-10-26T04:59:05;99210.47;;;14.19;100.00
9905;BME280;4991;43.566;27.820;2022-10-26T05:01:31;99206.81;;;14.24;100.00
9905;BME280;4991;43.566;27.820;2022-10-26T05:03:57;99209.25;;;14.26;100.00
9905;BME280;4991;43.566;27.820;2022-10-26T05:06:22;99213.59;;;14.27;100.00
9905;BME280;4991;43.566;27.820;2022-10-26T05:08:48;99215.22;;;14.28;100.00
9905;BME280;4991;43.566;27.820;2022-10-26T05:11:14;99213.59;;;14.27;100.00
9905;BME280;4991;43.566;27.820;2022-10-26T05:13:40;99220.88;;;14.40;100.00
9905;BME280;4991;43.566;27.820;2022-10-26T05:16:06;99222.97;;;14.34;100.00
9905;BME280;4991;43.566;27.820;2022-10-26T05:18:32;99223.47;;;14.45;100.00
9905;BME280;4991;43.566;27.820;2022-10-26T05:20:58;99233.78;;;14.48;100.00
9905;BME280;4991;43.566;27.820;2022-10-26T05:23:23;99236.38;;;14.53;100.00
9905;BME280;4991;43.566;27.820;2022-10-26T05:25:49;99236.56;;;14.56;100.00
9905;BME280;4991;43.566;27.820;2022-10-26T05:28:16;99233.81;;;14.56;100.00
9905;BME280;4991;43.566;27.820;2022-10-26T05:30:43;99239.13;;;14.53;100.00
9905;BME280;4991;43.566;27.820;2022-10-26T05:33:10;99239.47;;;14.60;100.00
9905;BME280;4991;43.566;27.820;2022-10-26T05:35:36;99229.81;;;14.62;100.00
9905;BME280;4991;43.566;27.820;2022-10-26T05:38:07;99242.72;;;14.62;100.00
9905;BME280;4991;43.566;27.820;2022-10-26T05:40:33;99243.69;;;14.74;100.00
9905;BME280;4991;43.566;27.820;2022-10-26T05:42:59;99233.53;;;14.75;100.00
9905;BME280;4991;43.566;27.820;2022-10-26T05:45:25;99241.75;;;14.75;100.00
9905;BME280;4991;43.566;27.820;2022-10-26T05:47:51;99243.22;;;14.89;100.00
9905;BME280;4991;43.566;27.820;2022-10-26T05:50:17;99244.22;;;14.93;100.00
9905;BME280;4991;43.566;27.820;2022-10-26T05:52:44;99245.00;;;15.02;100.00
9905;BME280;4991;43.566;27.820;2022-10-26T05:55:12;99240.34;;;15.03;100.00
9905;BME280;4991;43.566;27.820;2022-10-26T05:57:38;99249.69;;;15.19;100.00
9905;BME280;4991;43.566;27.820;2022-10-26T06:00:11;99246.34;;;15.22;100.00
9905;BME280;4991;43.566;27.820;2022-10-26T06:05:28;99251.16;;;15.25;100.00
9905;BME280;4991;43.566;27.820;2022-10-26T06:07:58;99255.19;;;15.36;100.00
9905;BME280;4991;43.566;27.820;2022-10-26T06:10:24;99262.97;;;15.42;100.00
9905;BME280;4991;43.566;27.820;2022-10-26T06:12:49;99265.06;;;15.37;100.00
9905;BME280;4991;43.566;27.820;2022-10-26T06:15:20;99269.25;;;15.34;100.00
9905;BME280;4991;43.566;27.820;2022-10-26T06:26:16;99291.97;;;16.03;100.00
9905;BME280;4991;43.566;27.820;2022-10-26T06:31:28;99284.13;;;16.22;100.00
9905;BME280;4991;43.566;27.820;2022-10-26T06:33:57;99296.59;;;16.20;100.00
9905;BME280;4991;43.566;27.820;2022-10-26T06:36:26;99305.13;;;16.27;100.00
9905;BME280;4991;43.566;27.820;2022-10-26T06:41:23;99305.81;;;16.15;100.00
9905;BME280;4991;43.566;27.820;2022-10-26T06:43:50;99308.28;;;16.08;100.00
9905;BME280;4991;43.566;27.820;2022-10-26T06:49:16;99309.75;;;15.97;100.00
9905;BME280;4991;43.566;27.820;2022-10-26T06:52:04;99308.78;;;15.93;100.00
9905;BME280;4991;43.566;27.820;2022-10-26T06:57:18;99306.03;;;15.93;100.00
9905;BME280;4991;43.566;27.820;2022-10-26T06:59:57;99303.13;;;15.98;100.00
9905;BME280;4991;43.566;27.820;2022-10-26T07:02:27;99307.78;;;16.15;100.00
9905;BME280;4991;43.566;27.820;2022-10-26T07:04:53;99301.31;;;16.11;100.00
9905;BME280;4991;43.566;27.820;2022-10-26T07:07:24;99294.38;;;16.13;100.00
9905;BME280;4991;43.566;27.820;2022-10-26T07:09:51;99290.25;;;16.28;100.00
9905;BME280;4991;43.566;27.820;2022-10-26T07:12:17;99300.25;;;16.32;100.00
9905;BME280;4991;43.566;27.820;2022-10-26T07:14:42;99293.50;;;16.30;100.00
9905;BME280;4991;43.566;27.820;2022-10-26T07:17:09;99302.50;;;16.39;100.00
9905;BME280;4991;43.566;27.820;2022-10-26T07:19:35;99309.75;;;16.52;100.00
9905;BME280;4991;43.566;27.820;2022-10-26T07:22:01;99304.41;;;16.55;100.00
9905;BME280;4991;43.566;27.820;2022-10-26T07:24:28;99308.31;;;16.54;100.00
9905;BME280;4991;43.566;27.820;2022-10-26T07:26:54;99308.56;;;16.61;100.00
9905;BME280;4991;43.566;27.820;2022-10-26T07:29:24;99303.06;;;16.61;100.00
9905;BME280;4991;43.566;27.820;2022-10-26T07:31:51;99305.50;;;16.63;100.00
9905;BME280;4991;43.566;27.820;2022-10-26T07:34:17;99314.31;;;16.77;100.00
9905;BME280;4991;43.566;27.820;2022-10-26T07:36:42;99306.38;;;16.84;100.00
9905;BME280;4991;43.566;27.820;2022-10-26T07:39:08;99309.25;;;16.88;100.00
9905;BME280;4991;43.566;27.820;2022-10-26T07:41:34;99309.84;;;16.93;100.00
9905;BME280;4991;43.566;27.820;2022-10-26T07:44:00;99301.56;;;17.02;100.00
9905;BME280;4991;43.566;27.820;2022-10-26T07:46:26;99304.78;;;17.04;100.00
9905;BME280;4991;43.566;27.820;2022-10-26T07:48:51;99308.75;;;17.15;100.00
9905;BME280;4991;43.566;27.820;2022-10-26T07:51:17;99308.69;;;17.23;100.00
9905;BME280;4991;43.566;27.820;2022-10-26T07:53:44;99311.78;;;17.22;100.00
9905;BME280;4991;43.566;27.820;2022-10-26T07:56:10;99314.41;;;17.18;100.00
9905;BME280;4991;43.566;27.820;2022-10-26T07:58:35;99311.78;;;17.22;100.00
9905;BME280;4991;43.566;27.820;2022-10-26T08:01:10;99318.81;;;17.31;100.00
9905;BME280;4991;43.566;27.820;2022-10-26T08:03:36;99322.41;;;17.32;100.00
9905;BME280;4991;43.566;27.820;2022-10-26T08:06:02;99328.19;;;17.39;100.00
9905;BME280;4991;43.566;27.820;2022-10-26T08:08:30;99319.25;;;17.42;100.00
9905;BME280;4991;43.566;27.820;2022-10-26T08:10:56;99329.28;;;17.46;100.00
9905;BME280;4991;43.566;27.820;2022-10-26T08:13:22;99320.13;;;17.54;100.00
9905;BME280;4991;43.566;27.820;2022-10-26T08:15:47;99330.88;;;17.68;100.00
9905;BME280;4991;43.566;27.820;2022-10-26T08:18:14;99327.78;;;17.69;100.00
9905;BME280;4991;43.566;27.820;2022-10-26T08:20:40;99330.81;;;17.76;100.00
9905;BME280;4991;43.566;27.820;2022-10-26T08:23:05;99334.72;;;17.75;100.00
9905;BME280;4991;43.566;27.820;2022-10-26T08:25:33;99340.16;;;17.84;100.00
9905;BME280;4991;43.566;27.820;2022-10-26T08:28:02;99341.75;;;17.85;100.00
9905;BME280;4991;43.566;27.820;2022-10-26T08:30:31;99333.34;;;17.81;100.00
9905;BME280;4991;43.566;27.820;2022-10-26T08:33:02;99334.75;;;17.87;100.00
9905;BME280;4991;43.566;27.820;2022-10-26T08:35:29;99335.81;;;17.95;100.00
9905;BME280;4991;43.566;27.820;2022-10-26T08:37:55;99339.97;;;18.01;100.00
9905;BME280;4991;43.566;27.820;2022-10-26T08:40:24;99341.19;;;18.12;100.00
9905;BME280;4991;43.566;27.820;2022-10-26T08:42:59;99339.06;;;18.09;100.00
9905;BME280;4991;43.566;27.820;2022-10-26T08:45:35;99333.47;;;18.18;100.00
9905;BME280;4991;43.566;27.820;2022-10-26T08:48:19;99330.50;;;18.23;100.00
9905;BME280;4991;43.566;27.820;2022-10-26T08:50:54;99339.16;;;18.33;100.00
9905;BME280;4991;43.566;27.820;2022-10-26T08:53:38;99330.06;;;18.33;100.00
9905;BME280;4991;43.566;27.820;2022-10-26T08:56:23;99337.75;;;18.60;100.00
9905;BME280;4991;43.566;27.820;2022-10-26T08:59:04;99332.59;;;19.06;100.00
9905;BME280;4991;43.566;27.820;2022-10-26T09:01:33;99329.22;;;20.32;100.00
9905;BME280;4991;43.566;27.820;2022-10-26T09:04:00;99334.75;;;21.25;100.00
9905;BME280;4991;43.566;27.820;2022-10-26T09:09:02;99332.19;;;23.22;100.00
9905;BME280;4991;43.566;27.820;2022-10-26T09:14:53;99331.50;;;25.44;100.00
9905;BME280;4991;43.566;27.820;2022-10-26T09:23:03;99330.25;;;27.93;96.07
9905;BME280;4991;43.566;27.820;2022-10-26T09:25:38;99327.00;;;28.70;90.10
9905;BME280;4991;43.566;27.820;2022-10-26T09:28:14;99326.34;;;29.03;80.46
9905;BME280;4991;43.566;27.820;2022-10-26T09:30:45;99335.03;;;29.60;77.30
9905;BME280;4991;43.566;27.820;2022-10-26T09:33:17;99341.78;;;29.29;76.02
9905;BME280;4991;43.566;27.820;2022-10-26T09:40:51;99347.56;;;26.93;90.48
9905;BME280;4991;43.566;27.820;2022-10-26T09:43:24;99340.63;;;26.20;93.76
9905;BME280;4991;43.566;27.820;2022-10-26T09:45:52;99334.63;;;25.36;100.00
9905;BME280;4991;43.566;27.820;2022-10-26T09:51:08;99336.34;;;26.58;97.98
9905;BME280;4991;43.566;27.820;2022-10-26T09:53:35;99339.53;;;26.63;95.96
9905;BME280;4991;43.566;27.820;2022-10-26T09:56:05;99337.59;;;25.64;95.16
9905;BME280;4991;43.566;27.820;2022-10-26T09:58:40;99339.84;;;24.50;100.00
9905;BME280;4991;43.566;27.820;2022-10-26T10:01:28;99335.47;;;26.26;98.69
9905;BME280;4991;43.566;27.820;2022-10-26T10:06:39;99339.97;;;26.69;88.38
9905;BME280;4991;43.566;27.820;2022-10-26T10:09:20;99347.19;;;25.70;92.12
9905;BME280;4991;43.566;27.820;2022-10-26T10:12:16;99342.22;;;25.39;94.87
9905;BME280;4991;43.566;27.820;2022-10-26T10:14:55;99339.13;;;24.97;99.39
9905;BME280;4991;43.566;27.820;2022-10-26T10:17:22;99347.22;;;24.69;100.00
9905;BME280;4991;43.566;27.820;2022-10-26T10:19:48;99343.50;;;25.56;95.10
9905;BME280;4991;43.566;27.820;2022-10-26T10:24:42;99343.53;;;24.24;100.00
9905;BME280;4991;43.566;27.820;2022-10-26T10:27:17;99329.31;;;23.67;100.00
9905;BME280;4991;43.566;27.820;2022-10-26T10:29:48;99331.63;;;25.08;100.00
9905;BME280;4991;43.566;27.820;2022-10-26T10:35:49;99335.88;;;24.14;100.00
9905;BME280;4991;43.566;27.820;2022-10-26T10:38:18;99337.03;;;24.10;100.00
9905;BME280;4991;43.566;27.820;2022-10-26T10:40:57;99338.13;;;24.39;100.00
9905;BME280;4991;43.566;27.820;2022-10-26T10:43:25;99332.69;;;24.53;100.00
9905;BME280;4991;43.566;27.820;2022-10-26T10:45:54;99337.84;;;24.91;98.70
9905;BME280;4991;43.566;27.820;2022-10-26T10:48:23;99328.59;;;25.34;97.46
9905;BME280;4991;43.566;27.820;2022-10-26T10:50:53;99331.56;;;25.01;92.77
9905;BME280;4991;43.566;27.820;2022-10-26T11:01:21;99332.28;;;25.41;82.87
9905;BME280;4991;43.566;27.820;2022-10-26T11:06:40;99339.06;;;26.26;68.01
9905;BME280;4991;43.566;27.820;2022-10-26T11:09:10;99330.31;;;26.28;67.30
9905;BME280;4991;43.566;27.820;2022-10-26T11:14:18;99331.53;;;25.48;73.88
9905;BME280;4991;43.566;27.820;2022-10-26T11:19:41;99327.25;;;25.68;70.11
9905;BME280;4991;43.566;27.820;2022-10-26T11:22:13;99322.81;;;25.64;67.03
9905;BME280;4991;43.566;27.820;2022-10-26T11:24:48;99332.41;;;25.05;66.38
9905;BME280;4991;43.566;27.820;2022-10-26T11:27:18;99328.84;;;25.08;68.39
9905;BME280;4991;43.566;27.820;2022-10-26T11:29:54;99327.94;;;26.44;64.36
9905;BME280;4991;43.566;27.820;2022-10-26T11:32:29;99327.91;;;27.74;57.07
9905;BME280;4991;43.566;27.820;2022-10-26T11:35:13;99332.78;;;27.38;56.54
9905;BME280;4991;43.566;27.820;2022-10-26T11:43:14;99332.31;;;26.31;62.15
9905;BME280;4991;43.566;27.820;2022-10-26T11:45:44;99331.41;;;26.06;63.20
9905;BME280;4991;43.566;27.820;2022-10-26T11:48:28;99330.78;;;26.72;63.20
9905;BME280;4991;43.566;27.820;2022-10-26T11:50:57;99333.97;;;26.85;58.09
9905;BME280;4991;43.566;27.820;2022-10-26T11:53:28;99331.06;;;26.18;60.13
9905;BME280;4991;43.566;27.820;2022-10-26T11:55:55;99329.06;;;26.15;58.06
9905;BME280;4991;43.566;27.820;2022-10-26T11:58:24;99326.75;;;26.41;58.77
9905;BME280;4991;43.566;27.820;2022-10-26T12:01:11;99333.13;;;26.42;55.36
9905;BME280;4991;43.566;27.820;2022-10-26T12:03:47;99341.19;;;26.82;56.33
9905;BME280;4991;43.566;27.820;2022-10-26T12:06:18;99330.34;;;27.58;54.96
9905;BME280;4991;43.566;27.820;2022-10-26T12:08:56;99331.19;;;28.41;52.31
9905;BME280;4991;43.566;27.820;2022-10-26T12:11:43;99332.72;;;29.07;50.11
9905;BME280;4991;43.566;27.820;2022-10-26T12:14:27;99332.22;;;29.23;49.71
9905;BME280;4991;43.566;27.820;2022-10-26T12:23:09;99329.25;;;25.68;61.99
9905;BME280;4991;43.566;27.820;2022-10-26T12:25:35;99332.28;;;24.91;68.68
9905;BME280;4991;43.566;27.820;2022-10-26T12:28:01;99331.19;;;25.64;68.25
9905;BME280;4991;43.566;27.820;2022-10-26T12:30:29;99335.94;;;26.63;62.19
9905;BME280;4991;43.566;27.820;2022-10-26T12:33:00;99326.75;;;28.51;55.11
9905;BME280;4991;43.566;27.820;2022-10-26T12:37:59;99330.69;;;29.93;49.27
9905;BME280;4991;43.566;27.820;2022-10-26T12:45:44;99346.75;;;29.11;42.58
9905;BME280;4991;43.566;27.820;2022-10-26T12:48:24;99340.28;;;28.63;45.06
9905;BME280;4991;43.566;27.820;2022-10-26T12:54:28;99340.44;;;28.38;46.22
9905;BME280;4991;43.566;27.820;2022-10-26T12:56:56;99343.00;;;28.77;45.41
9905;BME280;4991;43.566;27.820;2022-10-26T13:07:39;99357.31;;;30.45;41.16
9905;BME280;4991;43.566;27.820;2022-10-26T13:12:58;99353.81;;;30.64;39.82
9905;BME280;4991;43.566;27.820;2022-10-26T13:15:32;99351.38;;;30.06;40.52
9905;BME280;4991;43.566;27.820;2022-10-26T13:20:33;99347.91;;;28.62;43.79
9905;BME280;4991;43.566;27.820;2022-10-26T13:23:01;99356.81;;;28.50;43.78
9905;BME280;4991;43.566;27.820;2022-10-26T13:25:29;99363.38;;;28.12;43.90
9905;BME280;4991;43.566;27.820;2022-10-26T13:28:30;99359.56;;;27.22;46.01
9905;BME280;4991;43.566;27.820;2022-10-26T13:30:46;99371.44;;;26.38;49.35
9905;BME280;4991;43.566;27.820;2022-10-26T13:33:17;99368.16;;;26.22;51.54
9905;BME280;4991;43.566;27.820;2022-10-26T13:35:45;99363.59;;;25.82;53.86
9905;BME280;4991;43.566;27.820;2022-10-26T13:38:12;99370.63;;;25.55;56.19
9905;BME280;4991;43.566;27.820;2022-10-26T13:40:42;99372.31;;;25.70;58.05
9905;BME280;4991;43.566;27.820;2022-10-26T13:43:15;99365.84;;;25.59;58.42
9905;BME280;4991;43.566;27.820;2022-10-26T13:45:57;99373.41;;;25.55;60.55
9905;BME280;4991;43.566;27.820;2022-10-26T13:48:36;99372.31;;;25.70;60.55
9905;BME280;4991;43.566;27.820;2022-10-26T13:51:12;99366.25;;;25.58;61.43
9905;BME280;4991;43.566;27.820;2022-10-26T13:53:44;99377.13;;;25.77;60.93
9905;BME280;4991;43.566;27.820;2022-10-26T13:56:36;99376.59;;;26.32;60.14
9905;BME280;4991;43.566;27.820;2022-10-26T13:59:09;99379.41;;;26.46;55.78
9905;BME280;4991;43.566;27.820;2022-10-26T14:01:35;99383.41;;;26.42;55.19
9905;BME280;4991;43.566;27.820;2022-10-26T14:04:24;99380.47;;;26.03;56.95
9905;BME280;4991;43.566;27.820;2022-10-26T14:06:51;99380.25;;;25.68;58.35
9905;BME280;4991;43.566;27.820;2022-10-26T14:09:19;99379.31;;;25.43;59.28
9905;BME280;4991;43.566;27.820;2022-10-26T14:11:48;99374.03;;;25.34;59.72
9905;BME280;4991;43.566;27.820;2022-10-26T14:14:21;99371.84;;;25.07;61.30
9905;BME280;4991;43.566;27.820;2022-10-26T14:16:49;99378.16;;;24.60;64.29
9905;BME280;4991;43.566;27.820;2022-10-26T14:19:27;99378.16;;;24.60;63.87
9905;BME280;4991;43.566;27.820;2022-10-26T14:21:54;99382.00;;;24.49;65.63
9905;BME280;4991;43.566;27.820;2022-10-26T14:24:31;99381.50;;;24.40;68.97
9905;BME280;4991;43.566;27.820;2022-10-26T14:26:58;99379.44;;;24.00;74.38
9905;BME280;4991;43.566;27.820;2022-10-26T14:29:26;99379.53;;;24.07;73.55
9905;BME280;4991;43.566;27.820;2022-10-26T14:31:52;99388.31;;;23.83;74.91
9905;BME280;4991;43.566;27.820;2022-10-26T14:34:20;99388.50;;;23.67;77.89
9905;BME280;4991;43.566;27.820;2022-10-26T14:36:57;99380.00;;;23.57;81.79
9905;BME280;4991;43.566;27.820;2022-10-26T14:39:37;99395.13;;;23.33;85.95
9905;BME280;4991;43.566;27.820;2022-10-26T14:44:49;99394.56;;;22.98;88.54
9905;BME280;4991;43.566;27.820;2022-10-26T14:47:26;99402.44;;;22.73;95.26
9905;BME280;4991;43.566;27.820;2022-10-26T14:49:53;99394.34;;;22.46;100.00
9905;BME280;4991;43.566;27.820;2022-10-26T14:52:23;99393.72;;;22.14;100.00
9905;BME280;4991;43.566;27.820;2022-10-26T14:55:09;99409.84;;;21.90;100.00
9905;BME280;4991;43.566;27.820;2022-10-26T14:57:38;99404.19;;;21.67;100.00
9905;BME280;4991;43.566;27.820;2022-10-26T15:00:25;99401.63;;;21.43;100.00
9905;BME280;4991;43.566;27.820;2022-10-26T15:02:52;99404.72;;;21.22;100.00
9905;BME280;4991;43.566;27.820;2022-10-26T15:05:27;99411.25;;;20.99;100.00
9905;BME280;4991;43.566;27.820;2022-10-26T15:07:54;99412.38;;;20.82;100.00
9905;BME280;4991;43.566;27.820;2022-10-26T15:13:28;99419.06;;;20.38;100.00
9905;BME280;4991;43.566;27.820;2022-10-26T15:16:16;99417.06;;;20.23;100.00
9905;BME280;4991;43.566;27.820;2022-10-26T15:18:44;99415.03;;;20.08;100.00
9905;BME280;4991;43.566;27.820;2022-10-26T15:22:14;99424.63;;;19.98;100.00
9905;BME280;4991;43.566;27.820;2022-10-26T15:24:30;99422.34;;;19.88;100.00
9905;BME280;4991;43.566;27.820;2022-10-26T15:26:57;99428.47;;;19.82;100.00
9905;BME280;4991;43.566;27.820;2022-10-26T15:29:39;99432.41;;;19.69;100.00
9905;BME280;4991;43.566;27.820;2022-10-26T15:32:30;99429.91;;;19.52;100.00
9905;BME280;4991;43.566;27.820;2022-10-26T15:37:48;99442.09;;;19.14;100.00
9905;BME280;4991;43.566;27.820;2022-10-26T15:40:14;99443.91;;;19.10;100.00
9905;BME280;4991;43.566;27.820;2022-10-26T15:42:41;99443.69;;;19.03;100.00